Time;durP1;ratioP1;P1;durP2;ratioP2;P2;SDS_P1;SDS_P2;PMS_P1;PMS_P2;Temp;Humidity;BMP_temperature;BMP_pressure;BME280_temperature;BME280_humidity;BME280_pressure;Samples;Min_cycle;Max_cycle;Signal;HPM_P1;HPM_P2
2023/11/23 00:01:19;;;;;;;12.45;9.40;;;;;;;;;;5094716;28;20202;-60
2023/11/23 00:03:46;;;;;;;13.90;10.23;;;;;;;;;;5094496;28;20672;-60
2023/11/23 00:06:13;;;;;;;12.82;9.50;;;;;;;;;;5094995;28;20284;-60
2023/11/23 00:08:43;;;;;;;10.00;8.93;;;;;;;;;;5094787;28;20184;-60
2023/11/23 00:11:10;;;;;;;11.45;9.48;;;;;;;;;;5094729;28;20188;-59
2023/11/23 00:13:37;;;;;;;12.55;9.60;;;;;;;;;;5094449;28;20551;-60
2023/11/23 00:16:04;;;;;;;11.88;9.85;;;;;;;;;;5094202;28;20216;-60
2023/11/23 00:18:31;;;;;;;12.55;9.25;;;;;;;;;;5094188;28;20216;-60
2023/11/23 00:20:58;;;;;;;12.30;9.55;;;;;;;;;;5094262;28;20722;-60
2023/11/23 00:23:25;;;;;;;11.48;9.02;;;;;;;;;;5094313;28;20649;-60
2023/11/23 00:25:53;;;;;;;11.18;9.73;;;;;;;;;;5094164;28;20220;-60
2023/11/23 00:28:20;;;;;;;11.15;8.55;;;;;;;;;;5094139;28;20188;-60
2023/11/23 00:30:47;;;;;;;11.35;8.77;;;;;;;;;;5094522;28;20188;-60
2023/11/23 00:33:14;;;;;;;9.70;8.70;;;;;;;;;;5093980;28;20686;-60
2023/11/23 00:35:42;;;;;;;10.00;9.00;;;;;;;;;;5094106;28;20188;-60
2023/11/23 00:38:10;;;;;;;11.18;8.80;;;;;;;;;;5093868;28;20647;-60
2023/11/23 00:40:37;;;;;;;9.38;7.53;;;;;;;;;;5093950;28;20596;-60
2023/11/23 00:43:05;;;;;;;9.13;7.40;;;;;;;;;;5093831;28;20271;-60
2023/11/23 00:45:33;;;;;;;9.77;8.65;;;;;;;;;;5093673;28;20216;-60
2023/11/23 00:47:59;;;;;;;10.43;8.13;;;;;;;;;;5093586;28;20674;-60
2023/11/23 00:50:27;;;;;;;9.65;8.48;;;;;;;;;;5093856;28;20275;-60
2023/11/23 00:52:54;;;;;;;11.85;8.18;;;;;;;;;;5093700;28;20192;-60
2023/11/23 00:55:21;;;;;;;9.23;7.43;;;;;;;;;;5092748;28;20199;-60
2023/11/23 00:57:48;;;;;;;8.80;7.40;;;;;;;;;;5093543;28;20185;-61
2023/11/23 01:00:18;;;;;;;9.50;7.45;;;;;;;;;;5093446;28;20280;-60
2023/11/23 01:02:46;;;;;;;8.65;7.32;;;;;;;;;;5093592;28;20192;-60
2023/11/23 01:05:15;;;;;;;8.80;7.80;;;;;;;;;;5093614;28;20220;-60
2023/11/23 01:07:42;;;;;;;8.45;7.63;;;;;;;;;;5093355;28;20189;-60
2023/11/23 01:10:10;;;;;;;7.70;6.95;;;;;;;;;;5093418;28;20192;-60
2023/11/23 01:12:37;;;;;;;8.50;7.05;;;;;;;;;;5093240;28;20196;-60
2023/11/23 01:15:04;;;;;;;8.07;7.05;;;;;;;;;;5093343;28;20612;-61
2023/11/23 01:17:32;;;;;;;6.85;6.15;;;;;;;;;;5093386;28;20582;-60
2023/11/23 01:19:59;;;;;;;9.60;7.32;;;;;;;;;;5093372;28;20287;-60
2023/11/23 01:22:26;;;;;;;7.18;6.47;;;;;;;;;;5093242;28;20711;-60
2023/11/23 01:24:53;;;;;;;9.18;7.05;;;;;;;;;;5093231;28;20303;-60
2023/11/23 01:27:20;;;;;;;7.38;6.60;;;;;;;;;;5093164;28;20271;-60
2023/11/23 01:29:46;;;;;;;7.57;6.38;;;;;;;;;;5093301;28;20191;-60
2023/11/23 01:32:14;;;;;;;7.28;6.55;;;;;;;;;;5093220;28;20623;-61
2023/11/23 01:34:42;;;;;;;7.55;6.85;;;;;;;;;;5093163;28;20200;-61
2023/11/23 01:37:09;;;;;;;7.07;6.38;;;;;;;;;;5093019;28;20283;-61
2023/11/23 01:39:36;;;;;;;7.13;6.03;;;;;;;;;;5092940;28;20726;-61
2023/11/23 01:42:03;;;;;;;6.25;5.70;;;;;;;;;;5093200;28;20278;-61
2023/11/23 01:44:30;;;;;;;8.02;6.20;;;;;;;;;;5093093;28;20212;-61
2023/11/23 01:46:58;;;;;;;6.80;6.10;;;;;;;;;;5093006;28;20245;-61
2023/11/23 01:49:26;;;;;;;6.00;5.40;;;;;;;;;;5092906;28;20580;-61
2023/11/23 01:51:54;;;;;;;6.22;5.57;;;;;;;;;;5092954;28;20593;-61
2023/11/23 01:54:23;;;;;;;6.38;5.10;;;;;;;;;;5092866;28;20275;-61
2023/11/23 01:56:52;;;;;;;5.75;5.20;;;;;;;;;;5093080;28;20224;-61
2023/11/23 01:59:19;;;;;;;6.25;5.65;;;;;;;;;;5092967;28;20211;-61
2023/11/23 02:01:46;;;;;;;6.32;5.70;;;;;;;;;;5093006;28;20275;-61
2023/11/23 02:04:13;;;;;;;5.93;5.32;;;;;;;;;;5092801;28;20280;-61
2023/11/23 02:06:40;;;;;;;6.03;5.50;;;;;;;;;;5094017;28;20271;-61
2023/11/23 02:09:09;;;;;;;8.80;5.40;;;;;;;;;;5096952;28;20215;-61
2023/11/23 02:11:36;;;;;;;5.68;5.18;;;;;;;;;;5096921;28;20296;-61
2023/11/23 02:14:03;;;;;;;6.70;6.10;;;;;;;;;;5096919;28;20283;-61
2023/11/23 02:16:30;;;;;;;5.63;4.80;;;;;;;;;;5096578;28;20224;-61
2023/11/23 02:18:57;;;;;;;5.03;4.53;;;;;;;;;;5096587;28;20279;-61
2023/11/23 02:21:24;;;;;;;5.30;4.70;;;;;;;;;;5096541;28;20193;-61
2023/11/23 02:23:51;;;;;;;6.70;5.25;;;;;;;;;;5096786;28;20279;-61
2023/11/23 02:26:18;;;;;;;4.55;4.15;;;;;;;;;;5096549;28;20216;-61
2023/11/23 02:28:45;;;;;;;4.63;4.20;;;;;;;;;;5096520;28;20217;-61
2023/11/23 02:31:12;;;;;;;4.03;3.63;;;;;;;;;;5096479;28;20193;-61
2023/11/23 02:33:39;;;;;;;4.78;4.25;;;;;;;;;;5096291;28;20188;-61
2023/11/23 02:36:06;;;;;;;4.70;4.32;;;;;;;;;;5096505;28;20283;-61
2023/11/23 02:38:33;;;;;;;4.70;4.20;;;;;;;;;;5096391;28;20621;-61
2023/11/23 02:40:59;;;;;;;5.60;4.53;;;;;;;;;;5096328;28;20275;-61
2023/11/23 02:43:28;;;;;;;5.13;4.38;;;;;;;;;;5096311;28;20184;-61
2023/11/23 02:45:55;;;;;;;4.43;4.00;;;;;;;;;;5096035;28;20303;-61
2023/11/23 02:48:22;;;;;;;10.32;4.82;;;;;;;;;;5095971;28;20192;-61
2023/11/23 02:50:49;;;;;;;5.13;4.25;;;;;;;;;;5096261;28;20223;-61
2023/11/23 02:53:27;;;;;;;4.68;4.28;;;;;;;;;;5096212;28;20196;-61
2023/11/23 02:55:55;;;;;;;5.43;4.43;;;;;;;;;;5096048;28;20199;-61
2023/11/23 02:58:22;;;;;;;4.07;3.75;;;;;;;;;;5095849;28;20644;-61
2023/11/23 03:00:50;;;;;;;4.25;3.60;;;;;;;;;;5095794;28;20189;-61
2023/11/23 03:03:17;;;;;;;4.50;4.10;;;;;;;;;;5095838;28;20189;-61
2023/11/23 03:05:45;;;;;;;3.92;3.53;;;;;;;;;;5095880;28;20220;-61
2023/11/23 03:08:12;;;;;;;4.90;3.80;;;;;;;;;;5095756;28;20602;-61
2023/11/23 03:10:38;;;;;;;4.72;3.67;;;;;;;;;;5095781;28;20279;-61
2023/11/23 03:13:07;;;;;;;4.47;3.13;;;;;;;;;;5095933;28;20199;-61
2023/11/23 03:15:35;;;;;;;4.10;3.00;;;;;;;;;;5095706;28;20217;-61
2023/11/23 03:18:04;;;;;;;4.00;3.70;;;;;;;;;;5094777;28;20195;-61
2023/11/23 03:20:31;;;;;;;4.45;4.05;;;;;;;;;;5095613;28;20189;-61
2023/11/23 03:22:58;;;;;;;3.90;3.50;;;;;;;;;;5095435;28;20640;-61
2023/11/23 03:25:25;;;;;;;3.70;3.40;;;;;;;;;;5095392;28;20326;-61
2023/11/23 03:27:52;;;;;;;4.22;3.40;;;;;;;;;;5095249;28;20188;-61
2023/11/23 03:30:19;;;;;;;3.20;2.90;;;;;;;;;;5095533;28;20218;-61
2023/11/23 03:32:46;;;;;;;3.88;3.47;;;;;;;;;;5095412;28;20197;-61
2023/11/23 03:35:15;;;;;;;8.38;4.07;;;;;;;;;;5095362;28;20193;-61
2023/11/23 03:37:42;;;;;;;4.10;3.70;;;;;;;;;;5095140;28;20200;-61
2023/11/23 03:40:09;;;;;;;4.00;3.60;;;;;;;;;;5095086;28;20280;-61
2023/11/23 03:42:36;;;;;;;4.28;3.78;;;;;;;;;;5094924;28;20200;-61
2023/11/23 03:45:04;;;;;;;4.43;3.55;;;;;;;;;;5095215;28;20731;-61
2023/11/23 03:47:30;;;;;;;8.70;3.92;;;;;;;;;;5095075;28;20188;-61
2023/11/23 03:49:57;;;;;;;4.40;3.85;;;;;;;;;;5095273;28;20275;-61
2023/11/23 03:52:26;;;;;;;4.18;3.78;;;;;;;;;;5095116;28;20199;-60
2023/11/23 03:54:53;;;;;;;4.75;3.85;;;;;;;;;;5094809;28;20220;-61
2023/11/23 03:57:20;;;;;;;4.10;3.70;;;;;;;;;;5094619;28;20279;-60
2023/11/23 03:59:47;;;;;;;4.32;3.83;;;;;;;;;;5094997;28;20283;-61
2023/11/23 04:02:14;;;;;;;4.40;3.35;;;;;;;;;;5094877;28;20630;-61
2023/11/23 04:04:41;;;;;;;3.13;2.92;;;;;;;;;;5094694;28;20218;-61
2023/11/23 04:07:08;;;;;;;4.72;3.00;;;;;;;;;;5094459;28;20303;-61
2023/11/23 04:09:36;;;;;;;10.52;4.57;;;;;;;;;;5094416;28;20216;-61
2023/11/23 04:12:03;;;;;;;5.38;3.83;;;;;;;;;;5094673;28;20548;-61
2023/11/23 04:14:31;;;;;;;4.65;3.40;;;;;;;;;;5094539;28;20275;-61
2023/11/23 04:16:58;;;;;;;4.30;3.90;;;;;;;;;;5094431;28;20273;-61
2023/11/23 04:19:25;;;;;;;5.78;3.42;;;;;;;;;;5094467;28;20707;-61
2023/11/23 04:21:52;;;;;;;3.58;3.28;;;;;;;;;;5094312;28;20275;-61
2023/11/23 04:24:19;;;;;;;3.33;3.13;;;;;;;;;;5094171;28;20604;-61
2023/11/23 04:26:47;;;;;;;3.95;3.55;;;;;;;;;;5094483;28;20224;-61
2023/11/23 04:29:14;;;;;;;3.88;3.47;;;;;;;;;;5094115;28;20275;-61
2023/11/23 04:31:41;;;;;;;3.92;3.53;;;;;;;;;;5094018;28;20674;-61
2023/11/23 04:34:08;;;;;;;6.80;3.80;;;;;;;;;;5094057;28;20318;-61
2023/11/23 04:36:36;;;;;;;7.20;3.70;;;;;;;;;;5093940;28;20271;-61
2023/11/23 04:39:03;;;;;;;4.30;3.90;;;;;;;;;;5094086;28;20196;-61
2023/11/23 04:41:30;;;;;;;11.43;4.30;;;;;;;;;;5093973;28;20250;-61
2023/11/23 04:44:00;;;;;;;4.18;3.47;;;;;;;;;;5094280;28;20196;-61
2023/11/23 04:46:27;;;;;;;4.35;3.75;;;;;;;;;;5093934;28;20220;-61
2023/11/23 04:48:54;;;;;;;5.90;4.15;;;;;;;;;;5093773;28;20275;-61
2023/11/23 04:51:20;;;;;;;4.30;3.75;;;;;;;;;;5093706;28;20294;-61
2023/11/23 04:53:47;;;;;;;4.88;4.07;;;;;;;;;;5094091;28;20194;-61
2023/11/23 04:56:15;;;;;;;4.28;3.20;;;;;;;;;;5093611;28;20707;-61
2023/11/23 04:58:42;;;;;;;6.13;4.22;;;;;;;;;;5093657;28;20211;-61
2023/11/23 05:01:10;;;;;;;3.70;3.40;;;;;;;;;;5093626;28;20272;-61
2023/11/23 05:03:37;;;;;;;3.72;3.42;;;;;;;;;;5093531;28;20560;-61
2023/11/23 05:06:04;;;;;;;4.65;4.25;;;;;;;;;;5093378;28;20319;-60
2023/11/23 05:08:31;;;;;;;4.25;3.85;;;;;;;;;;5093635;28;20191;-61
2023/11/23 05:10:58;;;;;;;5.57;3.90;;;;;;;;;;5093523;28;20272;-61
2023/11/23 05:13:25;;;;;;;5.32;3.33;;;;;;;;;;5093395;28;20188;-61
2023/11/23 05:15:52;;;;;;;4.15;3.75;;;;;;;;;;5093194;28;20759;-61
2023/11/23 05:18:20;;;;;;;5.25;3.50;;;;;;;;;;5093194;28;20283;-61
2023/11/23 05:20:47;;;;;;;4.90;4.20;;;;;;;;;;5093416;28;20280;-61
2023/11/23 05:23:14;;;;;;;5.50;4.20;;;;;;;;;;5093356;28;20188;-61
2023/11/23 05:25:41;;;;;;;4.28;3.88;;;;;;;;;;5093166;28;20470;-61
2023/11/23 05:28:08;;;;;;;4.55;3.60;;;;;;;;;;5093555;28;20279;-61
2023/11/23 05:30:35;;;;;;;4.10;3.80;;;;;;;;;;5093213;28;20610;-61
2023/11/23 05:33:02;;;;;;;6.50;4.40;;;;;;;;;;5093044;28;20192;-61
2023/11/23 05:35:30;;;;;;;5.22;4.38;;;;;;;;;;5093149;28;20250;-61
2023/11/23 05:37:57;;;;;;;4.82;4.40;;;;;;;;;;5093132;28;20193;-61
2023/11/23 05:40:24;;;;;;;3.88;3.50;;;;;;;;;;5093013;28;20191;-61
2023/11/23 05:42:51;;;;;;;4.10;3.80;;;;;;;;;;5092636;28;20276;-61
2023/11/23 05:45:19;;;;;;;5.95;3.90;;;;;;;;;;5092997;28;20288;-61
2023/11/23 05:47:46;;;;;;;5.38;3.58;;;;;;;;;;5092797;28;20216;-61
2023/11/23 05:50:13;;;;;;;5.18;3.53;;;;;;;;;;5093095;28;20203;-61
2023/11/23 05:52:41;;;;;;;4.15;3.85;;;;;;;;;;5093289;28;20192;-61
2023/11/23 05:55:08;;;;;;;4.78;4.38;;;;;;;;;;5092916;28;20199;-61
2023/11/23 05:57:35;;;;;;;5.35;3.70;;;;;;;;;;5092848;28;20197;-61
2023/11/23 06:00:04;;;;;;;5.60;4.25;;;;;;;;;;5092812;28;20198;-61
2023/11/23 06:02:31;;;;;;;4.97;4.38;;;;;;;;;;5092991;28;20188;-61
2023/11/23 06:04:57;;;;;;;6.57;4.68;;;;;;;;;;5092898;28;20778;-61
2023/11/23 06:07:24;;;;;;;7.00;5.20;;;;;;;;;;5092790;28;20224;-61
2023/11/23 06:09:52;;;;;;;6.72;5.18;;;;;;;;;;5092789;28;20185;-61
2023/11/23 06:12:19;;;;;;;4.82;4.32;;;;;;;;;;5092847;28;20195;-61
2023/11/23 06:14:46;;;;;;;4.83;4.37;;;;;;;;;;5092534;28;20195;-61
2023/11/23 06:17:14;;;;;;;6.88;5.15;;;;;;;;;;5093011;28;20568;-61
2023/11/23 06:19:41;;;;;;;10.02;6.28;;;;;;;;;;5092756;28;20197;-60
2023/11/23 06:22:08;;;;;;;6.63;5.38;;;;;;;;;;5092577;28;20193;-61
2023/11/23 06:24:35;;;;;;;4.63;4.22;;;;;;;;;;5092612;28;20197;-61
2023/11/23 06:27:04;;;;;;;6.78;5.30;;;;;;;;;;5092426;28;20639;-61
2023/11/23 06:29:31;;;;;;;6.47;5.82;;;;;;;;;;5092736;28;20275;-61
2023/11/23 06:31:58;;;;;;;7.32;6.07;;;;;;;;;;5092566;28;20185;-61
2023/11/23 06:34:26;;;;;;;7.77;5.67;;;;;;;;;;5092644;28;20184;-61
2023/11/23 06:36:52;;;;;;;10.90;5.60;;;;;;;;;;5092514;28;20446;-61
2023/11/23 06:39:23;;;;;;;7.00;5.50;;;;;;;;;;5092272;28;20227;-61
2023/11/23 06:41:50;;;;;;;6.35;5.75;;;;;;;;;;5092652;28;20451;-61
2023/11/23 06:44:18;;;;;;;7.37;6.27;;;;;;;;;;5092555;28;20192;-61
2023/11/23 06:46:45;;;;;;;7.50;6.70;;;;;;;;;;5092343;28;20564;-60
2023/11/23 06:49:12;;;;;;;7.00;6.30;;;;;;;;;;5092191;28;21135;-61
2023/11/23 06:51:39;;;;;;;7.63;6.57;;;;;;;;;;5092294;28;20288;-61
2023/11/23 06:54:06;;;;;;;8.50;6.85;;;;;;;;;;5094002;28;20442;-61
2023/11/23 06:56:33;;;;;;;9.00;6.30;;;;;;;;;;5096039;28;20223;-61
2023/11/23 06:59:01;;;;;;;7.10;6.43;;;;;;;;;;5095938;28;20446;-61
2023/11/23 07:01:29;;;;;;;8.00;6.43;;;;;;;;;;5096054;28;20438;-61
2023/11/23 07:03:56;;;;;;;8.73;6.83;;;;;;;;;;5095796;28;20308;-61
2023/11/23 07:06:24;;;;;;;8.35;7.10;;;;;;;;;;5095958;28;20470;-61
2023/11/23 07:08:51;;;;;;;7.57;6.30;;;;;;;;;;5095487;28;20196;-61
2023/11/23 07:11:19;;;;;;;7.03;6.33;;;;;;;;;;5095786;28;20295;-61
2023/11/23 07:13:46;;;;;;;6.80;6.20;;;;;;;;;;5095484;28;21004;-61
2023/11/23 07:16:13;;;;;;;6.87;6.20;;;;;;;;;;5095413;28;20695;-61
2023/11/23 07:18:41;;;;;;;7.68;6.93;;;;;;;;;;5095434;28;20442;-61
2023/11/23 07:21:08;;;;;;;9.03;7.20;;;;;;;;;;5095359;28;20279;-61
2023/11/23 07:23:36;;;;;;;7.43;6.73;;;;;;;;;;5095355;28;20473;-61
2023/11/23 07:26:03;;;;;;;8.35;6.22;;;;;;;;;;5095440;28;20446;-61
2023/11/23 07:28:30;;;;;;;7.55;6.75;;;;;;;;;;5095192;28;20758;-61
2023/11/23 07:30:57;;;;;;;7.20;6.50;;;;;;;;;;5095281;28;20218;-61
2023/11/23 07:33:25;;;;;;;7.40;6.47;;;;;;;;;;5095292;28;20450;-61
2023/11/23 07:35:53;;;;;;;7.80;7.00;;;;;;;;;;5094966;28;20447;-61
2023/11/23 07:38:20;;;;;;;7.30;6.60;;;;;;;;;;5095223;28;20848;-60
2023/11/23 07:40:47;;;;;;;8.65;7.95;;;;;;;;;;5095378;28;20449;-60
2023/11/23 07:43:14;;;;;;;9.90;7.67;;;;;;;;;;5095146;28;20627;-60
2023/11/23 07:45:41;;;;;;;8.90;7.90;;;;;;;;;;5094909;28;20925;-61
2023/11/23 07:48:09;;;;;;;8.60;7.63;;;;;;;;;;5094861;28;20532;-61
2023/11/23 07:50:36;;;;;;;7.80;7.00;;;;;;;;;;5095230;28;20513;-61
2023/11/23 07:53:04;;;;;;;8.83;7.10;;;;;;;;;;5095011;28;20451;-61
2023/11/23 07:55:32;;;;;;;7.20;6.50;;;;;;;;;;5094852;28;21012;-60
2023/11/23 07:57:59;;;;;;;7.67;6.87;;;;;;;;;;5094736;28;20443;-61
2023/11/23 08:00:26;;;;;;;7.73;6.93;;;;;;;;;;5094572;28;20866;-60
2023/11/23 08:02:54;;;;;;;6.93;5.93;;;;;;;;;;5094438;28;20446;-61
2023/11/23 08:05:21;;;;;;;9.73;8.43;;;;;;;;;;5093969;28;20442;-60
2023/11/23 08:07:50;;;;;;;9.83;7.93;;;;;;;;;;5094453;28;20478;-61
2023/11/23 08:10:18;;;;;;;9.73;6.93;;;;;;;;;;5094387;28;20526;-63
2023/11/23 08:12:46;;;;;;;7.10;6.13;;;;;;;;;;5094047;28;20541;-58
2023/11/23 08:15:13;;;;;;;8.77;7.43;;;;;;;;;;5094107;28;20493;-59
2023/11/23 08:17:40;;;;;;;7.40;6.63;;;;;;;;;;5094037;28;20453;-60
2023/11/23 08:20:09;;;;;;;6.67;5.90;;;;;;;;;;5094337;28;20934;-61
2023/11/23 08:22:35;;;;;;;8.23;6.57;;;;;;;;;;5094284;28;20844;-59
2023/11/23 08:25:02;;;;;;;8.90;7.27;;;;;;;;;;5094047;28;20531;-63
2023/11/23 08:27:31;;;;;;;8.00;7.20;;;;;;;;;;5093960;28;20574;-61
2023/11/23 08:29:57;;;;;;;7.50;6.47;;;;;;;;;;5093883;28;20573;-59
2023/11/23 08:32:24;;;;;;;8.17;7.37;;;;;;;;;;5093292;28;20514;-60
2023/11/23 08:34:52;;;;;;;10.73;6.90;;;;;;;;;;5092764;28;20478;-60
2023/11/23 08:37:19;;;;;;;7.80;6.37;;;;;;;;;;5092335;28;20495;-60
2023/11/23 08:39:46;;;;;;;9.80;7.33;;;;;;;;;;5092934;28;20465;-59
2023/11/23 08:42:15;;;;;;;6.70;6.10;;;;;;;;;;5092579;28;20446;-60
2023/11/23 08:44:43;;;;;;;7.37;6.67;;;;;;;;;;5092543;28;20546;-59
2023/11/23 08:47:10;;;;;;;9.07;6.37;;;;;;;;;;5092457;28;20586;-59
2023/11/23 08:49:37;;;;;;;7.80;7.00;;;;;;;;;;5093136;28;20455;-60
2023/11/23 08:52:04;;;;;;;8.50;6.67;;;;;;;;;;5093809;28;20533;-60
2023/11/23 08:54:31;;;;;;;7.43;6.80;;;;;;;;;;5093701;28;20530;-60
2023/11/23 08:56:58;;;;;;;8.53;5.80;;;;;;;;;;5093358;28;20451;-60
2023/11/23 08:59:25;;;;;;;6.93;6.30;;;;;;;;;;5093554;28;20533;-60
2023/11/23 09:01:53;;;;;;;7.40;6.70;;;;;;;;;;5093755;28;20887;-59
2023/11/23 09:04:20;;;;;;;6.60;6.00;;;;;;;;;;5093597;28;20451;-59
2023/11/23 09:06:47;;;;;;;7.57;6.40;;;;;;;;;;5093171;28;20973;-59
2023/11/23 09:09:14;;;;;;;7.63;6.30;;;;;;;;;;5093424;28;20477;-60
2023/11/23 09:11:41;;;;;;;7.87;7.10;;;;;;;;;;5093195;28;20449;-60
2023/11/23 09:14:08;;;;;;;7.43;6.73;;;;;;;;;;5093546;28;20458;-60
2023/11/23 09:16:35;;;;;;;6.53;5.93;;;;;;;;;;5092315;28;20989;-60
2023/11/23 09:19:03;;;;;;;7.47;6.53;;;;;;;;;;5093410;28;20533;-60
2023/11/23 09:21:30;;;;;;;7.23;6.23;;;;;;;;;;5093281;28;20443;-60
2023/11/23 09:23:57;;;;;;;11.30;6.73;;;;;;;;;;5093238;28;20853;-60
2023/11/23 09:26:24;;;;;;;6.30;5.40;;;;;;;;;;5093103;28;20443;-60
2023/11/23 09:28:51;;;;;;;7.40;6.00;;;;;;;;;;5093181;28;20570;-60
2023/11/23 09:31:18;;;;;;;8.20;6.30;;;;;;;;;;5093039;28;20960;-60
2023/11/23 09:33:45;;;;;;;6.43;5.77;;;;;;;;;;5093324;28;20446;-60
2023/11/23 09:36:14;;;;;;;7.27;6.40;;;;;;;;;;5093097;28;20541;-60
2023/11/23 09:38:42;;;;;;;6.20;5.60;;;;;;;;;;5092948;28;20442;-59
2023/11/23 09:41:12;;;;;;;6.33;5.57;;;;;;;;;;5092930;28;20439;-60
2023/11/23 09:43:39;;;;;;;6.60;5.80;;;;;;;;;;5093098;28;20537;-60
2023/11/23 09:46:07;;;;;;;10.37;8.40;;;;;;;;;;5092844;28;20503;-60
2023/11/23 09:48:35;;;;;;;6.27;5.57;;;;;;;;;;5092780;28;20484;-60
2023/11/23 09:51:02;;;;;;;7.20;6.10;;;;;;;;;;5092870;28;20447;-60
2023/11/23 09:53:32;;;;;;;8.37;5.93;;;;;;;;;;5092714;28;20495;-60
2023/11/23 09:56:00;;;;;;;7.37;6.60;;;;;;;;;;5092854;28;20533;-61
2023/11/23 09:58:27;;;;;;;6.93;6.10;;;;;;;;;;5092762;28;21039;-61
2023/11/23 10:00:55;;;;;;;7.30;6.10;;;;;;;;;;5090941;28;20542;-60
2023/11/23 10:03:23;;;;;;;12.43;7.03;;;;;;;;;;5089515;28;20442;-60
2023/11/23 10:05:51;;;;;;;8.30;6.50;;;;;;;;;;5089946;28;20537;-60
2023/11/23 10:08:18;;;;;;;8.03;6.17;;;;;;;;;;5092328;28;20485;-59
2023/11/23 10:10:46;;;;;;;7.00;6.20;;;;;;;;;;5092245;28;20446;-60
2023/11/23 10:13:13;;;;;;;6.70;6.00;;;;;;;;;;5087603;28;20453;-59
2023/11/23 10:15:40;;;;;;;6.90;6.20;;;;;;;;;;5105601;28;20478;-62
2023/11/23 10:18:07;;;;;;;7.07;5.90;;;;;;;;;;5072378;28;20490;-61
2023/11/23 10:20:36;;;;;;;6.40;5.80;;;;;;;;;;5072361;28;20451;-62
2023/11/23 10:23:03;;;;;;;8.93;8.03;;;;;;;;;;5086648;28;20450;-62
2023/11/23 10:25:32;;;;;;;6.90;6.30;;;;;;;;;;5092709;28;20529;-62
2023/11/23 10:28:00;;;;;;;7.40;5.97;;;;;;;;;;5094248;28;20493;-62
2023/11/23 10:30:27;;;;;;;6.50;5.83;;;;;;;;;;5096395;28;20453;-62
2023/11/23 10:32:54;;;;;;;7.23;5.77;;;;;;;;;;5096170;28;20445;-60
2023/11/23 10:35:22;;;;;;;7.57;6.50;;;;;;;;;;5096158;28;20481;-61
2023/11/23 10:37:53;;;;;;;6.23;5.70;;;;;;;;;;5096326;28;20533;-62
2023/11/23 10:40:21;;;;;;;7.10;6.40;;;;;;;;;;5095973;28;20840;-62
2023/11/23 10:42:48;;;;;;;6.40;5.80;;;;;;;;;;5095902;28;20942;-60
2023/11/23 10:45:18;;;;;;;8.40;7.07;;;;;;;;;;5095983;28;20888;-63
2023/11/23 10:47:47;;;;;;;8.90;6.20;;;;;;;;;;5095928;28;20549;-60
2023/11/23 10:50:14;;;;;;;7.10;6.50;;;;;;;;;;5096099;28;20920;-61
2023/11/23 10:52:43;;;;;;;6.63;6.03;;;;;;;;;;5096033;28;20450;-60
2023/11/23 10:55:11;;;;;;;7.43;6.63;;;;;;;;;;5095890;28;20473;-61
2023/11/23 10:57:38;;;;;;;7.90;7.10;;;;;;;;;;5095902;28;20438;-61
2023/11/23 11:00:11;;;;;;;8.20;6.83;;;;;;;;;;5095667;28;20449;-62
2023/11/23 11:02:39;;;;;;;8.03;7.20;;;;;;;;;;5095922;28;20517;-62
2023/11/23 11:05:21;;;;;;;9.50;7.93;;;;;;;;;;5095653;28;20492;-61
2023/11/23 11:07:54;;;;;;;7.80;7.10;;;;;;;;;;5095810;28;20564;-61
2023/11/23 11:10:20;;;;;;;9.20;7.00;;;;;;;;;;5095408;28;20451;-61
2023/11/23 11:12:48;;;;;;;13.23;7.80;;;;;;;;;;5095462;28;20481;-61
2023/11/23 11:15:21;;;;;;;8.07;7.37;;;;;;;;;;5095530;28;20543;-62
2023/11/23 11:17:51;;;;;;;8.23;7.40;;;;;;;;;;5093563;28;20503;-62
2023/11/23 11:20:22;;;;;;;11.07;7.70;;;;;;;;;;5101050;28;20438;-63
2023/11/23 11:22:55;;;;;;;11.30;9.23;;;;;;;;;;5099392;28;20435;-63
2023/11/23 11:25:23;;;;;;;9.70;7.57;;;;;;;;;;5103116;28;20846;-63
2023/11/23 11:27:51;;;;;;;9.10;8.20;;;;;;;;;;5099423;28;20474;-62
2023/11/23 11:30:24;;;;;;;9.10;7.57;;;;;;;;;;5094951;28;20776;-59
2023/11/23 11:32:53;;;;;;;8.90;7.87;;;;;;;;;;5092691;28;21015;-58
2023/11/23 11:35:20;;;;;;;11.20;7.27;;;;;;;;;;5094687;28;20443;-58
2023/11/23 11:37:48;;;;;;;9.00;7.67;;;;;;;;;;5092183;28;21005;-58
2023/11/23 11:40:16;;;;;;;8.33;7.00;;;;;;;;;;5094042;28;20733;-60
2023/11/23 11:42:43;;;;;;;9.17;7.23;;;;;;;;;;5095031;28;20496;-55
2023/11/23 11:45:12;;;;;;;7.53;6.70;;;;;;;;;;5095037;28;20450;-56
2023/11/23 11:47:39;;;;;;;8.03;6.90;;;;;;;;;;5094769;28;20471;-58
2023/11/23 11:50:08;;;;;;;10.23;7.63;;;;;;;;;;5094631;28;20521;-58
2023/11/23 11:52:37;;;;;;;9.50;7.90;;;;;;;;;;5095002;28;20492;-58
2023/11/23 11:55:05;;;;;;;8.30;7.60;;;;;;;;;;5094706;28;20807;-55
2023/11/23 11:57:39;;;;;;;8.20;7.40;;;;;;;;;;5094715;28;20443;-55
2023/11/23 12:00:08;;;;;;;7.33;6.23;;;;;;;;;;5094590;28;20469;-62
2023/11/23 12:02:35;;;;;;;8.37;7.57;;;;;;;;;;5074310;28;20454;-63
2023/11/23 12:05:02;;;;;;;8.50;7.20;;;;;;;;;;5074484;28;20502;-62
2023/11/23 12:07:30;;;;;;;9.97;7.03;;;;;;;;;;5073863;28;20531;-62
2023/11/23 12:09:59;;;;;;;7.57;6.87;;;;;;;;;;5074285;28;20885;-63
2023/11/23 12:12:26;;;;;;;7.27;6.67;;;;;;;;;;5074098;28;20810;-64
2023/11/23 12:14:53;;;;;;;6.67;6.00;;;;;;;;;;5074000;28;20451;-62
2023/11/23 12:17:19;;;;;;;8.10;7.30;;;;;;;;;;5073727;28;20471;-64
2023/11/23 12:19:53;;;;;;;7.83;6.80;;;;;;;;;;5074107;28;20898;-60
2023/11/23 12:22:23;;;;;;;7.40;6.70;;;;;;;;;;5074002;28;20530;-61
2023/11/23 12:24:51;;;;;;;9.00;6.33;;;;;;;;;;5073955;28;20458;-62
2023/11/23 12:27:20;;;;;;;7.83;7.07;;;;;;;;;;5073678;28;20475;-61
2023/11/23 12:29:47;;;;;;;8.70;6.23;;;;;;;;;;5073270;28;21009;-60
2023/11/23 12:32:14;;;;;;;8.97;8.17;;;;;;;;;;5073141;28;20955;-60
2023/11/23 12:34:41;;;;;;;9.53;7.67;;;;;;;;;;5073635;28;20531;-60
2023/11/23 12:37:09;;;;;;;9.00;7.63;;;;;;;;;;5073603;28;20482;-59
2023/11/23 12:39:36;;;;;;;6.93;6.20;;;;;;;;;;5073635;28;20538;-59
2023/11/23 12:42:04;;;;;;;7.67;6.50;;;;;;;;;;5073441;28;20531;-61
2023/11/23 12:44:33;;;;;;;8.80;7.30;;;;;;;;;;5073619;28;20538;-61
2023/11/23 12:47:00;;;;;;;7.97;7.07;;;;;;;;;;5073440;28;20935;-60
2023/11/23 12:49:28;;;;;;;7.67;6.73;;;;;;;;;;5073589;28;20511;-60
2023/11/23 12:51:54;;;;;;;7.80;7.07;;;;;;;;;;5073357;28;20454;-61
2023/11/23 12:54:21;;;;;;;8.40;7.60;;;;;;;;;;5073307;28;20650;-60
2023/11/23 12:56:51;;;;;;;9.70;8.70;;;;;;;;;;5073195;28;20446;-62
2023/11/23 12:59:19;;;;;;;10.07;8.70;;;;;;;;;;5072090;28;21000;-62
2023/11/23 13:01:46;;;;;;;10.77;8.53;;;;;;;;;;5072914;28;20259;-62
2023/11/23 13:04:14;;;;;;;9.50;8.20;;;;;;;;;;5073069;28;20448;-63
2023/11/23 13:06:41;;;;;;;9.77;8.80;;;;;;;;;;5073205;28;20443;-64
2023/11/23 13:09:11;;;;;;;14.73;8.90;;;;;;;;;;5072886;28;20487;-60
2023/11/23 13:11:39;;;;;;;8.27;6.93;;;;;;;;;;5073244;28;20479;-61
2023/11/23 13:14:07;;;;;;;7.70;7.00;;;;;;;;;;5073120;28;20479;-61
2023/11/23 13:16:35;;;;;;;8.83;7.20;;;;;;;;;;5072613;28;20520;-60
2023/11/23 13:19:06;;;;;;;10.30;7.73;;;;;;;;;;5072828;28;20431;-62
2023/11/23 13:21:36;;;;;;;10.20;8.27;;;;;;;;;;5072903;28;20443;-62
2023/11/23 13:24:04;;;;;;;9.83;8.83;;;;;;;;;;5073560;28;20534;-62
2023/11/23 13:26:31;;;;;;;9.30;8.40;;;;;;;;;;5072830;28;20450;-60
2023/11/23 13:28:58;;;;;;;8.27;7.47;;;;;;;;;;5072468;28;20515;-61
2023/11/23 13:31:26;;;;;;;8.70;7.23;;;;;;;;;;5072757;28;20448;-63
2023/11/23 13:33:55;;;;;;;10.30;8.60;;;;;;;;;;5072835;28;20505;-60
2023/11/23 13:36:22;;;;;;;11.83;7.93;;;;;;;;;;5072626;28;20542;-62
2023/11/23 13:38:50;;;;;;;7.80;7.13;;;;;;;;;;5072471;28;20533;-62
2023/11/23 13:41:17;;;;;;;8.67;7.73;;;;;;;;;;5084976;28;21017;-62
2023/11/23 13:43:44;;;;;;;7.13;6.43;;;;;;;;;;5092856;28;20496;-62
2023/11/23 13:46:10;;;;;;;8.03;7.23;;;;;;;;;;5092912;28;20558;-60
2023/11/23 13:48:38;;;;;;;7.07;6.43;;;;;;;;;;5092664;28;20553;-61
2023/11/23 13:51:06;;;;;;;8.00;7.20;;;;;;;;;;5092366;28;20440;-61
2023/11/23 13:53:33;;;;;;;7.77;6.90;;;;;;;;;;5092674;28;20272;-61
2023/11/23 13:56:00;;;;;;;7.73;6.90;;;;;;;;;;5092809;28;20446;-62
2023/11/23 13:58:29;;;;;;;12.53;10.20;;;;;;;;;;5092601;28;20536;-61
2023/11/23 14:00:56;;;;;;;8.03;7.20;;;;;;;;;;5092655;28;20525;-60
2023/11/23 14:03:23;;;;;;;7.30;6.60;;;;;;;;;;5095075;28;20535;-60
2023/11/23 14:05:50;;;;;;;10.37;7.20;;;;;;;;;;5097144;28;20889;-60
2023/11/23 14:08:20;;;;;;;8.63;6.97;;;;;;;;;;5096841;28;20452;-60
2023/11/23 14:10:47;;;;;;;6.83;6.13;;;;;;;;;;5096566;28;20535;-60
2023/11/23 14:13:15;;;;;;;6.70;6.00;;;;;;;;;;5095634;28;20993;-60
2023/11/23 14:15:43;;;;;;;7.30;6.23;;;;;;;;;;5095479;28;20477;-60
2023/11/23 14:18:13;;;;;;;6.97;6.37;;;;;;;;;;5095457;28;20447;-60
2023/11/23 14:20:42;;;;;;;7.07;6.40;;;;;;;;;;5095667;28;20449;-60
2023/11/23 14:23:12;;;;;;;7.50;6.80;;;;;;;;;;5095426;28;20454;-60
2023/11/23 14:25:40;;;;;;;6.90;6.23;;;;;;;;;;5096202;28;20442;-60
2023/11/23 14:28:12;;;;;;;7.43;6.73;;;;;;;;;;5096355;28;20443;-60
2023/11/23 14:30:39;;;;;;;8.90;7.50;;;;;;;;;;5096316;28;20859;-60
2023/11/23 14:33:06;;;;;;;7.33;6.73;;;;;;;;;;5096225;28;20557;-60
2023/11/23 14:35:33;;;;;;;11.97;9.83;;;;;;;;;;5095978;28;20434;-60
2023/11/23 14:38:01;;;;;;;7.87;7.10;;;;;;;;;;5095799;28;20434;-60
2023/11/23 14:40:29;;;;;;;10.33;7.20;;;;;;;;;;5096048;28;20442;-60
2023/11/23 14:42:57;;;;;;;8.37;7.57;;;;;;;;;;5096103;28;20446;-60